createdAt,value
2023-02-11T00:01:19.660Z,1.92
2023-02-11T00:03:46.964Z,1.89
2023-02-11T00:06:14.196Z,1.92
2023-02-11T00:08:41.400Z,1.91
2023-02-11T00:11:12.686Z,1.92
2023-02-11T00:13:40.122Z,1.92
2023-02-11T00:16:09.576Z,1.88
2023-02-11T00:18:36.804Z,1.91
2023-02-11T00:21:09.086Z,1.91
2023-02-11T00:23:36.963Z,1.93
2023-02-11T00:26:11.505Z,1.92
2023-02-11T00:28:40.643Z,1.91
2023-02-11T00:31:11.346Z,1.91
2023-02-11T00:33:38.659Z,1.92
2023-02-11T00:36:08.934Z,1.91
2023-02-11T00:38:36.505Z,1.89
2023-02-11T00:41:03.731Z,1.91
2023-02-11T00:43:31.855Z,1.92
2023-02-11T00:45:59.438Z,1.94
2023-02-11T00:48:26.636Z,1.97
2023-02-11T00:50:54.097Z,1.95
2023-02-11T00:53:21.258Z,1.97
2023-02-11T00:55:48.617Z,1.95
2023-02-11T00:58:16.399Z,1.91
2023-02-11T01:00:43.525Z,1.92
2023-02-11T01:03:10.645Z,1.98
2023-02-11T01:05:37.764Z,1.96
2023-02-11T01:08:05.454Z,1.98
2023-02-11T01:10:32.869Z,1.96
2023-02-11T01:13:00.242Z,1.92
2023-02-11T01:15:27.598Z,1.95
2023-02-11T01:17:55.582Z,1.96
2023-02-11T01:20:25.935Z,1.95
2023-02-11T01:22:53.084Z,1.94
2023-02-11T01:25:20.274Z,1.91
2023-02-11T01:27:47.540Z,1.92
2023-02-11T01:30:15.128Z,1.94
2023-02-11T01:32:42.280Z,1.95
2023-02-11T01:35:09.612Z,1.92
2023-02-11T01:37:37.288Z,1.91
2023-02-11T01:40:12.005Z,1.90
2023-02-11T01:42:39.368Z,1.89
2023-02-11T01:45:57.613Z,1.85
2023-02-11T01:48:31.529Z,1.78
2023-02-11T01:51:08.533Z,1.78
2023-02-11T01:53:57.406Z,1.80
2023-02-11T01:56:46.090Z,1.85
2023-02-11T01:59:22.884Z,1.84
2023-02-11T02:01:57.419Z,1.84
2023-02-11T02:04:31.759Z,1.87
2023-02-11T02:07:12.420Z,1.80
2023-02-11T02:09:45.211Z,1.82
2023-02-11T02:12:12.373Z,1.83
2023-02-11T02:14:41.424Z,1.85
2023-02-11T02:17:20.654Z,1.83
2023-02-11T02:20:08.812Z,1.83
2023-02-11T02:23:09.580Z,1.78
2023-02-11T02:25:59.779Z,1.84
2023-02-11T02:29:02.154Z,1.75
2023-02-11T02:31:38.283Z,1.81
2023-02-11T02:34:24.359Z,1.82
2023-02-11T02:37:09.686Z,1.80
2023-02-11T02:39:37.974Z,1.81
2023-02-11T02:42:06.102Z,1.80
2023-02-11T02:44:34.404Z,1.84
2023-02-11T02:47:01.681Z,1.85
2023-02-11T02:49:28.809Z,1.85
2023-02-11T02:52:15.668Z,1.86
2023-02-11T02:55:01.167Z,1.85
2023-02-11T02:57:55.318Z,1.84
2023-02-11T03:00:44.424Z,1.84
2023-02-11T03:03:36.646Z,1.84
2023-02-11T03:06:28.688Z,1.81
2023-02-11T03:09:13.158Z,1.83
2023-02-11T03:11:40.693Z,1.80
2023-02-11T03:14:13.225Z,1.84
2023-02-11T03:16:41.128Z,1.77
2023-02-11T03:19:26.805Z,1.87
2023-02-11T03:21:56.540Z,1.83
2023-02-11T03:24:31.367Z,1.86
2023-02-11T03:27:04.236Z,1.87
2023-02-11T03:29:37.853Z,1.86
2023-02-11T03:32:24.288Z,1.90
2023-02-11T03:35:01.073Z,1.89
2023-02-11T03:37:41.128Z,1.88
2023-02-11T03:40:17.644Z,1.89
2023-02-11T03:43:17.972Z,1.89
2023-02-11T03:45:48.174Z,1.90
2023-02-11T03:48:22.853Z,1.91
2023-02-11T03:50:52.496Z,1.94
2023-02-11T03:53:22.302Z,1.95
2023-02-11T03:55:52.126Z,1.98
2023-02-11T03:58:19.697Z,1.98
2023-02-11T04:00:46.912Z,2.00
2023-02-11T04:03:14.235Z,1.98
2023-02-11T04:05:41.484Z,1.96
2023-02-11T04:08:08.977Z,2.00
2023-02-11T04:10:36.242Z,2.00
2023-02-11T04:13:03.323Z,1.99
2023-02-11T04:15:30.494Z,2.03
2023-02-11T04:17:57.596Z,2.01
2023-02-11T04:20:24.934Z,2.02
2023-02-11T04:22:52.091Z,1.99
2023-02-11T04:25:19.227Z,2.03
2023-02-11T04:27:46.285Z,2.04
2023-02-11T04:30:13.891Z,2.04
2023-02-11T04:32:40.929Z,2.01
2023-02-11T04:35:08.293Z,1.99
2023-02-11T04:37:35.984Z,2.02
2023-02-11T04:40:03.615Z,2.03
2023-02-11T04:42:30.727Z,2.04
2023-02-11T04:44:58.008Z,2.03
2023-02-11T04:47:25.182Z,2.03
2023-02-11T04:49:52.220Z,2.03
2023-02-11T04:52:19.243Z,2.03
2023-02-11T04:54:46.430Z,2.00
2023-02-11T04:57:13.524Z,2.02
2023-02-11T04:59:40.986Z,2.03
2023-02-11T05:02:08.049Z,2.06
2023-02-11T05:04:35.415Z,2.04
2023-02-11T05:07:02.494Z,2.03
2023-02-11T05:09:29.607Z,2.06
2023-02-11T05:11:56.723Z,2.03
2023-02-11T05:14:23.880Z,1.99
2023-02-11T05:16:50.989Z,1.80
2023-02-11T05:19:18.173Z,2.00
2023-02-11T05:22:00.201Z,2.04
2023-02-11T05:24:29.078Z,2.00
2023-02-11T05:26:56.186Z,2.03
2023-02-11T05:29:23.282Z,2.02
2023-02-11T05:31:50.358Z,2.05
2023-02-11T05:34:17.443Z,2.01
2023-02-11T05:36:44.499Z,1.99
2023-02-11T05:39:11.527Z,2.04
2023-02-11T05:41:38.636Z,2.04
2023-02-11T05:44:05.746Z,2.03
2023-02-11T05:46:32.864Z,2.03
2023-02-11T05:49:00.050Z,2.02
2023-02-11T05:51:27.139Z,2.04
2023-02-11T05:53:54.394Z,2.01
2023-02-11T05:56:21.621Z,2.05
2023-02-11T05:58:48.770Z,2.01
2023-02-11T06:01:15.786Z,1.97
2023-02-11T06:03:42.899Z,1.99
2023-02-11T06:06:12.923Z,1.98
2023-02-11T06:08:40.237Z,1.97
2023-02-11T06:11:07.395Z,2.01
2023-02-11T06:13:34.978Z,2.03
2023-02-11T06:16:03.379Z,1.96
2023-02-11T06:18:30.806Z,1.98
2023-02-11T06:20:57.928Z,1.96
2023-02-11T06:23:25.032Z,1.96
2023-02-11T06:25:53.536Z,1.95
2023-02-11T06:28:20.916Z,1.93
2023-02-11T06:30:48.125Z,1.94
2023-02-11T06:33:15.876Z,1.93
2023-02-11T06:35:42.977Z,1.93
2023-02-11T06:38:10.110Z,1.94
2023-02-11T06:40:37.261Z,1.95
2023-02-11T06:43:04.323Z,1.89
2023-02-11T06:45:31.386Z,1.95
2023-02-11T06:47:58.625Z,1.95
2023-02-11T06:50:25.723Z,1.85
2023-02-11T06:52:52.857Z,1.91
2023-02-11T06:55:20.274Z,1.92
2023-02-11T06:57:47.375Z,1.92
2023-02-11T07:00:14.867Z,1.93
2023-02-11T07:02:42.058Z,1.86
2023-02-11T07:05:09.684Z,1.91
2023-02-11T07:07:37.342Z,1.88
2023-02-11T07:10:04.895Z,1.88
2023-02-11T07:12:32.530Z,1.87
2023-02-11T07:14:59.776Z,1.89
2023-02-11T07:17:26.848Z,1.85
2023-02-11T07:19:53.925Z,1.86
2023-02-11T07:22:21.086Z,1.86
2023-02-11T07:24:48.229Z,1.86
2023-02-11T07:27:15.451Z,1.88
2023-02-11T07:29:42.936Z,1.90
2023-02-11T07:32:10.234Z,1.85
2023-02-11T07:34:37.679Z,1.90
2023-02-11T07:37:05.053Z,1.89
2023-02-11T07:39:32.335Z,1.92
2023-02-11T07:42:00.262Z,1.91
2023-02-11T07:44:27.925Z,1.88
2023-02-11T07:46:55.023Z,1.96
2023-02-11T07:49:22.165Z,1.96
2023-02-11T07:51:51.408Z,1.96
2023-02-11T07:54:18.574Z,1.95
2023-02-11T07:56:46.120Z,1.95
2023-02-11T07:59:13.184Z,1.98
2023-02-11T08:01:40.488Z,1.98
2023-02-11T08:04:07.567Z,1.99
2023-02-11T08:06:35.860Z,2.02
2023-02-11T08:09:09.598Z,2.04
2023-02-11T08:11:37.201Z,2.05
2023-02-11T08:14:04.468Z,2.06
2023-02-11T08:16:35.023Z,2.09
2023-02-11T08:19:11.850Z,2.11
2023-02-11T08:21:39.915Z,2.11
2023-02-11T08:24:08.002Z,2.06
2023-02-11T08:26:35.863Z,2.13
2023-02-11T08:29:07.765Z,2.15
2023-02-11T08:31:38.288Z,2.14
2023-02-11T08:34:06.650Z,2.17
2023-02-11T08:36:36.106Z,2.16
2023-02-11T08:39:22.692Z,2.19
2023-02-11T08:41:52.824Z,2.18
2023-02-11T08:44:20.235Z,2.18
2023-02-11T08:46:48.017Z,2.22
2023-02-11T08:49:15.771Z,2.24
2023-02-11T08:51:42.986Z,2.26
2023-02-11T08:54:10.395Z,2.29
2023-02-11T08:56:39.448Z,2.32
2023-02-11T08:59:07.464Z,2.34
2023-02-11T09:01:36.027Z,2.38
2023-02-11T09:04:03.434Z,2.41
2023-02-11T09:06:30.702Z,2.45
2023-02-11T09:08:58.561Z,2.53
2023-02-11T09:11:30.005Z,2.54
2023-02-11T09:13:57.441Z,2.54
2023-02-11T09:16:28.440Z,2.57
2023-02-11T09:19:01.200Z,2.60
2023-02-11T09:21:29.294Z,2.64
2023-02-11T09:23:56.996Z,2.64
2023-02-11T09:26:29.435Z,2.70
2023-02-11T09:28:57.173Z,2.72
2023-02-11T09:31:26.918Z,2.74
2023-02-11T09:33:57.241Z,2.74
2023-02-11T09:36:25.866Z,2.72
2023-02-11T09:38:53.735Z,2.76
2023-02-11T09:41:23.828Z,2.75
2023-02-11T09:43:54.881Z,2.78
2023-02-11T09:46:24.570Z,2.80
2023-02-11T09:48:54.920Z,2.84
2023-02-11T09:52:09.486Z,2.84
2023-02-11T09:54:57.111Z,2.83
2023-02-11T09:57:33.549Z,2.83
2023-02-11T10:00:02.281Z,2.89
2023-02-11T10:02:57.440Z,2.87
2023-02-11T10:05:27.194Z,2.94
2023-02-11T10:08:15.903Z,2.95
2023-02-11T10:10:57.084Z,2.91
2023-02-11T10:13:36.421Z,3.00
2023-02-11T10:16:31.476Z,3.00
2023-02-11T10:19:20.350Z,3.04
2023-02-11T10:22:10.395Z,3.07
2023-02-11T10:24:38.371Z,3.12
2023-02-11T10:27:21.574Z,3.13
2023-02-11T10:29:54.587Z,3.15
2023-02-11T10:33:03.609Z,3.22
2023-02-11T10:35:32.541Z,3.28
2023-02-11T10:38:00.734Z,3.29
2023-02-11T10:40:30.608Z,3.28
2023-02-11T10:43:12.849Z,3.38
2023-02-11T10:45:53.341Z,3.39
2023-02-11T10:48:42.435Z,3.39
2023-02-11T10:51:26.540Z,3.40
2023-02-11T10:54:06.357Z,3.43
2023-02-11T10:56:38.038Z,3.44
2023-02-11T10:59:14.673Z,3.47
2023-02-11T11:01:46.920Z,3.50
2023-02-11T11:04:37.683Z,3.46
2023-02-11T11:07:33.166Z,3.53
2023-02-11T11:10:25.921Z,3.57
2023-02-11T11:12:53.150Z,3.60
2023-02-11T11:15:26.696Z,3.65
2023-02-11T11:18:22.083Z,3.63
2023-02-11T11:20:59.989Z,3.70
2023-02-11T11:23:30.225Z,3.74
2023-02-11T11:26:07.615Z,3.74
2023-02-11T11:28:51.801Z,3.76
2023-02-11T11:31:23.151Z,3.78
2023-02-11T11:33:53.926Z,3.79
2023-02-11T11:36:25.019Z,3.82
2023-02-11T11:39:00.679Z,3.84
2023-02-11T11:41:33.980Z,3.85
2023-02-11T11:44:38.542Z,3.88
2023-02-11T11:47:29.862Z,3.91
2023-02-11T11:50:35.488Z,3.87
2023-02-11T11:53:12.807Z,3.91
2023-02-11T11:55:59.797Z,3.94
2023-02-11T11:58:29.534Z,3.98
2023-02-11T12:01:11.483Z,3.99
2023-02-11T12:04:03.926Z,4.03
2023-02-11T12:07:03.268Z,4.06
2023-02-11T12:10:00.939Z,4.09
2023-02-11T12:12:46.556Z,4.11
2023-02-11T12:15:19.876Z,4.13
2023-02-11T12:18:16.157Z,4.21
2023-02-11T12:20:58.280Z,4.26
2023-02-11T12:23:43.212Z,4.29
2023-02-11T12:26:13.088Z,4.30
2023-02-11T12:29:01.707Z,4.31
2023-02-11T12:31:40.801Z,4.33
2023-02-11T12:34:22.335Z,4.35
2023-02-11T12:37:15.800Z,4.36
2023-02-11T12:39:54.920Z,4.38
2023-02-11T12:43:01.463Z,4.41
2023-02-11T12:45:46.087Z,4.41
2023-02-11T12:48:39.150Z,4.43
2023-02-11T12:51:06.364Z,4.47
2023-02-11T12:53:39.197Z,4.48
2023-02-11T12:56:18.647Z,4.48
2023-02-11T12:58:48.954Z,4.51
2023-02-11T13:01:21.822Z,4.51
2023-02-11T13:03:55.080Z,4.52
2023-02-11T13:06:45.062Z,4.52
2023-02-11T13:09:19.219Z,4.54
2023-02-11T13:11:52.255Z,4.55
2023-02-11T13:14:29.904Z,4.56
2023-02-11T13:16:58.711Z,4.60
2023-02-11T13:19:31.658Z,4.61
2023-02-11T13:22:19.866Z,4.59
2023-02-11T13:24:56.905Z,4.60
2023-02-11T13:27:50.898Z,4.57
2023-02-11T13:30:35.286Z,4.57
2023-02-11T13:33:21.299Z,4.58
2023-02-11T13:36:09.993Z,4.58
2023-02-11T13:38:38.063Z,4.59
2023-02-11T13:41:33.465Z,4.59
2023-02-11T13:44:22.723Z,4.61
2023-02-11T13:47:05.001Z,4.63
2023-02-11T13:49:35.650Z,4.63
2023-02-11T13:52:06.987Z,4.65
2023-02-11T13:54:38.539Z,4.66
2023-02-11T13:57:20.810Z,4.66
2023-02-11T13:59:49.528Z,4.67
2023-02-11T14:02:53.364Z,4.70
2023-02-11T14:05:51.184Z,4.69
2023-02-11T14:08:40.512Z,4.67
2023-02-11T14:11:33.528Z,4.70
2023-02-11T14:14:26.858Z,4.65
2023-02-11T14:17:00.387Z,4.64
2023-02-11T14:19:36.501Z,4.64
2023-02-11T14:22:10.726Z,4.61
2023-02-11T14:24:37.784Z,4.65
2023-02-11T14:27:21.620Z,4.59
2023-02-11T14:30:26.407Z,4.62
2023-02-11T14:32:53.489Z,4.62
2023-02-11T14:35:32.438Z,4.62
2023-02-11T14:38:02.375Z,4.63
2023-02-11T14:40:48.186Z,4.62
2023-02-11T14:43:29.119Z,4.59
2023-02-11T14:45:58.640Z,4.63
2023-02-11T14:48:38.257Z,4.61
2023-02-11T14:51:19.467Z,4.62
2023-02-11T14:53:53.689Z,4.62
2023-02-11T14:56:26.692Z,4.64
2023-02-11T14:58:55.461Z,4.64
2023-02-11T15:01:42.477Z,4.62
2023-02-11T15:04:28.879Z,4.62
2023-02-11T15:06:59.581Z,4.63
2023-02-11T15:09:45.925Z,4.64
2023-02-11T15:12:25.737Z,4.65
2023-02-11T15:15:00.689Z,4.67
2023-02-11T15:17:32.128Z,4.67
2023-02-11T15:20:02.791Z,4.67
2023-02-11T15:22:33.399Z,4.68
2023-02-11T15:25:11.072Z,4.64
2023-02-11T15:27:44.420Z,4.67
2023-02-11T15:30:26.829Z,4.65
2023-02-11T15:33:03.345Z,4.66
2023-02-11T15:35:35.330Z,4.65
2023-02-11T15:38:03.737Z,4.67
2023-02-11T15:40:33.856Z,4.66
2023-02-11T15:43:03.545Z,4.66
2023-02-11T15:45:58.680Z,4.65
2023-02-11T15:48:33.001Z,4.61
2023-02-11T15:51:06.075Z,4.63
2023-02-11T15:53:42.544Z,4.68
2023-02-11T15:56:17.588Z,4.67
2023-02-11T15:58:47.854Z,4.67
2023-02-11T16:01:15.200Z,4.66
2023-02-11T16:03:43.460Z,4.66
2023-02-11T16:06:35.099Z,4.69
2023-02-11T16:09:06.165Z,4.69
2023-02-11T16:11:53.966Z,4.69
2023-02-11T16:14:29.616Z,4.72
2023-02-11T16:17:00.390Z,4.74
2023-02-11T16:19:28.921Z,4.72
2023-02-11T16:21:58.660Z,4.77
2023-02-11T16:24:30.440Z,4.80
2023-02-11T16:27:00.461Z,4.80
2023-02-11T16:29:30.581Z,4.84
2023-02-11T16:32:08.515Z,4.84
2023-02-11T16:34:36.032Z,4.88
2023-02-11T16:37:06.617Z,4.91
2023-02-11T16:39:34.392Z,4.93
2023-02-11T16:42:02.429Z,4.95
2023-02-11T16:44:30.260Z,4.94
2023-02-11T16:47:00.284Z,4.94
2023-02-11T16:49:31.654Z,4.92
2023-02-11T16:52:06.125Z,4.92
2023-02-11T16:54:33.429Z,4.94
2023-02-11T16:57:00.924Z,4.94
2023-02-11T16:59:28.203Z,4.98
2023-02-11T17:01:55.283Z,4.99
2023-02-11T17:04:26.188Z,4.96
2023-02-11T17:06:53.344Z,5.00
2023-02-11T17:09:27.117Z,5.02
2023-02-11T17:11:55.513Z,5.03
2023-02-11T17:14:22.592Z,5.00
2023-02-11T17:16:49.876Z,5.04
2023-02-11T17:19:21.196Z,5.04
2023-02-11T17:21:50.517Z,5.04
2023-02-11T17:24:18.437Z,5.04
2023-02-11T17:26:46.255Z,5.05
2023-02-11T17:29:16.008Z,5.04
2023-02-11T17:31:43.364Z,5.05
2023-02-11T17:34:11.016Z,5.03
2023-02-11T17:36:38.074Z,5.06
2023-02-11T17:39:08.146Z,5.06
2023-02-11T17:41:36.505Z,5.02
2023-02-11T17:44:04.640Z,5.04
2023-02-11T17:46:32.544Z,5.05
2023-02-11T17:48:59.851Z,5.06
2023-02-11T17:51:32.855Z,5.06
2023-02-11T17:54:03.100Z,5.06
2023-02-11T17:56:32.738Z,5.04
2023-02-11T17:59:00.035Z,5.03
2023-02-11T18:01:28.068Z,5.01
2023-02-11T18:03:55.249Z,5.04
2023-02-11T18:06:22.408Z,5.04
2023-02-11T18:08:49.700Z,5.04
2023-02-11T18:11:17.605Z,5.02
2023-02-11T18:13:54.503Z,5.00
2023-02-11T18:16:23.486Z,5.04
2023-02-11T18:18:51.754Z,5.01
2023-02-11T18:21:21.410Z,5.05
2023-02-11T18:23:49.502Z,5.06
2023-02-11T18:26:18.888Z,5.06
2023-02-11T18:28:46.542Z,5.06
2023-02-11T18:31:14.703Z,5.07
2023-02-11T18:33:42.786Z,5.05
2023-02-11T18:36:13.424Z,5.05
2023-02-11T18:38:41.543Z,5.04
2023-02-11T18:41:09.206Z,5.04
2023-02-11T18:43:37.437Z,5.04
2023-02-11T18:46:13.514Z,5.03
2023-02-11T18:48:41.547Z,5.00
2023-02-11T18:51:14.923Z,5.03
2023-02-11T18:53:43.462Z,4.99
2023-02-11T18:56:20.464Z,5.04
2023-02-11T18:58:48.149Z,5.03
2023-02-11T19:01:18.596Z,5.04
2023-02-11T19:03:46.165Z,5.03
2023-02-11T19:06:24.976Z,5.02
2023-02-11T19:08:59.535Z,5.03
2023-02-11T19:11:47.366Z,5.01
2023-02-11T19:14:16.748Z,4.99
2023-02-11T19:16:46.284Z,5.01
2023-02-11T19:19:14.098Z,5.01
2023-02-11T19:21:43.993Z,4.97
2023-02-11T19:24:11.760Z,5.02
2023-02-11T19:26:39.474Z,5.01
2023-02-11T19:29:06.754Z,4.98
2023-02-11T19:31:34.633Z,5.01
2023-02-11T19:34:03.088Z,5.03
2023-02-11T19:36:30.760Z,4.99
2023-02-11T19:39:01.682Z,5.01
2023-02-11T19:41:30.207Z,5.02
2023-02-11T19:43:57.286Z,4.99
2023-02-11T19:46:32.326Z,5.02
2023-02-11T19:49:00.904Z,5.03
2023-02-11T19:51:28.422Z,5.00
2023-02-11T19:53:55.764Z,5.00
2023-02-11T19:56:23.322Z,5.04
2023-02-11T19:58:50.440Z,5.03
2023-02-11T20:01:22.388Z,5.02
2023-02-11T20:03:50.880Z,5.05
2023-02-11T20:06:23.726Z,5.05
2023-02-11T20:08:58.326Z,5.06
2023-02-11T20:11:28.379Z,5.05
2023-02-11T20:13:56.629Z,4.99
2023-02-11T20:16:40.636Z,5.04
2023-02-11T20:19:08.218Z,5.02
2023-02-11T20:21:35.390Z,5.00
2023-02-11T20:24:03.111Z,4.96
2023-02-11T20:26:33.252Z,4.98
2023-02-11T20:29:04.298Z,4.97
2023-02-11T20:31:32.485Z,4.96
2023-02-11T20:34:01.366Z,4.95
2023-02-11T20:36:32.390Z,4.94
2023-02-11T20:39:00.560Z,4.92
2023-02-11T20:41:31.113Z,4.90
2023-02-11T20:44:01.733Z,4.88
2023-02-11T20:46:31.395Z,4.87
2023-02-11T20:48:59.449Z,4.89
2023-02-11T20:51:28.947Z,4.88
2023-02-11T20:53:56.269Z,4.88
2023-02-11T20:56:29.907Z,4.84
2023-02-11T20:59:01.262Z,4.87
2023-02-11T21:01:37.489Z,4.87
2023-02-11T21:04:12.158Z,4.86
2023-02-11T21:06:42.269Z,4.85
2023-02-11T21:09:13.666Z,4.84
2023-02-11T21:11:41.555Z,4.82
2023-02-11T21:14:10.081Z,4.79
2023-02-11T21:16:37.661Z,4.77
2023-02-11T21:19:05.539Z,4.75
2023-02-11T21:21:33.178Z,4.68
2023-02-11T21:24:00.839Z,4.61
2023-02-11T21:26:28.035Z,4.62
2023-02-11T21:28:55.418Z,4.61
2023-02-11T21:31:26.286Z,4.58
2023-02-11T21:33:56.986Z,4.60
2023-02-11T21:36:24.305Z,4.62
2023-02-11T21:38:51.694Z,4.61
2023-02-11T21:41:22.739Z,4.57
2023-02-11T21:43:51.129Z,4.58
2023-02-11T21:46:19.400Z,4.57
2023-02-11T21:48:47.128Z,4.57
2023-02-11T21:51:17.751Z,4.60
2023-02-11T21:53:45.366Z,4.60
2023-02-11T21:56:18.498Z,4.61
2023-02-11T21:58:46.399Z,4.59
2023-02-11T22:01:16.419Z,4.58
2023-02-11T22:03:44.158Z,4.54
2023-02-11T22:06:14.298Z,4.51
2023-02-11T22:08:41.766Z,4.43
2023-02-11T22:11:11.673Z,4.47
2023-02-11T22:13:38.986Z,4.44
2023-02-11T22:16:09.392Z,4.46
2023-02-11T22:18:36.773Z,4.42
2023-02-11T22:21:12.418Z,4.42
2023-02-11T22:23:40.427Z,4.38
2023-02-11T22:26:13.738Z,4.39
2023-02-11T22:28:41.198Z,4.36
2023-02-11T22:31:13.560Z,4.34
2023-02-11T22:33:40.933Z,4.31
2023-02-11T22:36:14.434Z,4.29
2023-02-11T22:38:41.594Z,4.22
2023-02-11T22:41:10.965Z,4.23
2023-02-11T22:43:38.917Z,4.21
2023-02-11T22:46:07.841Z,4.18
2023-02-11T22:48:35.812Z,4.19
2023-02-11T22:51:11.122Z,4.19
2023-02-11T22:53:38.614Z,4.18
2023-02-11T22:56:15.190Z,4.22
2023-02-11T22:58:43.483Z,4.21
2023-02-11T23:01:11.421Z,4.21
2023-02-11T23:03:39.135Z,4.18
2023-02-11T23:06:06.797Z,4.10
2023-02-11T23:08:34.612Z,4.10
2023-02-11T23:11:08.009Z,4.04
2023-02-11T23:13:37.668Z,3.97
2023-02-11T23:16:07.105Z,3.92
2023-02-11T23:18:35.869Z,3.83
2023-02-11T23:21:12.667Z,3.78
2023-02-11T23:23:40.366Z,3.73
2023-02-11T23:26:12.457Z,3.68
2023-02-11T23:28:40.044Z,3.66
2023-02-11T23:31:18.882Z,3.64
2023-02-11T23:33:47.235Z,3.64
2023-02-11T23:36:15.403Z,3.62
2023-02-11T23:38:42.752Z,3.59
2023-02-11T23:41:11.209Z,3.59
2023-02-11T23:43:38.802Z,3.56
2023-02-11T23:46:06.662Z,3.54
2023-02-11T23:48:36.091Z,3.51
2023-02-11T23:51:03.864Z,3.48
2023-02-11T23:53:31.018Z,3.48
2023-02-11T23:55:58.416Z,3.49
2023-02-11T23:58:25.795Z,3.45
